createdAt,value
2022-10-09T00:01:07.773Z,15.01
2022-10-09T00:03:36.212Z,14.99
2022-10-09T00:06:03.859Z,15.00
2022-10-09T00:08:31.018Z,15.01
2022-10-09T00:10:57.838Z,15.02
2022-10-09T00:13:24.705Z,15.02
2022-10-09T00:15:51.633Z,15.02
2022-10-09T00:18:19.123Z,15.03
2022-10-09T00:20:47.162Z,15.02
2022-10-09T00:23:17.349Z,15.00
2022-10-09T00:25:58.034Z,15.00
2022-10-09T00:28:26.722Z,15.01
2022-10-09T00:30:54.615Z,15.01
2022-10-09T00:33:21.843Z,15.02
2022-10-09T00:35:49.227Z,15.02
2022-10-09T00:38:16.142Z,15.02
2022-10-09T00:40:43.399Z,15.03
2022-10-09T00:43:19.257Z,15.04
2022-10-09T00:45:55.851Z,15.03
2022-10-09T00:48:23.625Z,15.08
2022-10-09T00:50:54.588Z,15.09
2022-10-09T00:53:24.100Z,15.10
2022-10-09T00:55:51.319Z,15.10
2022-10-09T00:58:19.395Z,15.14
2022-10-09T01:00:46.207Z,15.14
2022-10-09T01:03:13.054Z,15.16
2022-10-09T01:05:39.752Z,15.16
2022-10-09T01:08:24.766Z,15.18
2022-10-09T01:11:06.757Z,15.21
2022-10-09T01:13:43.021Z,15.23
2022-10-09T01:16:24.032Z,15.24
2022-10-09T01:19:06.366Z,15.26
2022-10-09T01:21:43.762Z,15.26
2022-10-09T01:24:19.374Z,15.27
2022-10-09T01:27:04.735Z,15.27
2022-10-09T01:29:40.932Z,15.29
2022-10-09T01:32:11.236Z,15.29
2022-10-09T01:34:39.996Z,15.31
2022-10-09T01:37:09.089Z,15.31
2022-10-09T01:39:37.311Z,15.31
2022-10-09T01:42:04.827Z,15.33
2022-10-09T01:44:33.183Z,15.33
2022-10-09T01:47:00.951Z,15.33
2022-10-09T01:49:49.694Z,15.34
2022-10-09T01:52:27.812Z,15.34
2022-10-09T01:55:25.301Z,15.35
2022-10-09T01:57:57.846Z,15.35
2022-10-09T02:00:25.595Z,15.36
2022-10-09T02:02:54.978Z,15.37
2022-10-09T02:05:26.282Z,15.35
2022-10-09T02:07:55.259Z,15.35
2022-10-09T02:10:23.473Z,15.33
2022-10-09T02:12:55.142Z,15.31
2022-10-09T02:15:27.895Z,15.29
2022-10-09T02:18:02.813Z,15.26
2022-10-09T02:20:34.026Z,15.25
2022-10-09T02:23:04.690Z,15.23
2022-10-09T02:25:31.707Z,15.23
2022-10-09T02:27:58.570Z,15.21
2022-10-09T02:30:30.431Z,15.20
2022-10-09T02:32:57.563Z,15.19
2022-10-09T02:35:24.316Z,15.18
2022-10-09T02:37:51.060Z,15.17
2022-10-09T02:40:17.762Z,15.14
2022-10-09T02:42:44.517Z,15.13
2022-10-09T02:45:11.334Z,15.14
2022-10-09T02:47:38.040Z,15.12
2022-10-09T02:50:05.247Z,15.15
2022-10-09T02:52:31.966Z,15.14
2022-10-09T02:54:58.765Z,15.14
2022-10-09T02:57:25.467Z,15.14
2022-10-09T02:59:52.183Z,15.13
2022-10-09T03:02:19.069Z,15.14
2022-10-09T03:04:45.966Z,15.13
2022-10-09T03:07:12.695Z,15.12
2022-10-09T03:09:39.408Z,15.11
2022-10-09T03:12:06.221Z,15.10
2022-10-09T03:14:32.983Z,15.10
2022-10-09T03:16:59.740Z,15.10
2022-10-09T03:19:26.543Z,15.11
2022-10-09T03:21:53.289Z,15.09
2022-10-09T03:24:20.115Z,15.08
2022-10-09T03:26:46.864Z,15.05
2022-10-09T03:29:13.549Z,15.04
2022-10-09T03:31:51.857Z,15.06
2022-10-09T03:34:19.411Z,15.02
2022-10-09T03:36:46.371Z,15.02
2022-10-09T03:39:13.051Z,15.00
2022-10-09T03:41:39.812Z,14.98
2022-10-09T03:44:06.678Z,14.99
2022-10-09T03:46:33.509Z,14.98
2022-10-09T03:49:00.268Z,14.98
2022-10-09T03:51:27.622Z,14.97
2022-10-09T03:53:54.326Z,14.96
2022-10-09T03:56:21.080Z,14.96
2022-10-09T03:58:47.808Z,14.95
2022-10-09T04:01:14.604Z,14.94
2022-10-09T04:03:41.415Z,14.95
2022-10-09T04:06:08.120Z,14.92
2022-10-09T04:08:35.421Z,14.91
2022-10-09T04:11:02.235Z,14.90
2022-10-09T04:13:29.280Z,14.87
2022-10-09T04:15:56.603Z,14.86
2022-10-09T04:18:23.771Z,14.85
2022-10-09T04:20:56.021Z,14.83
2022-10-09T04:23:25.348Z,14.80
2022-10-09T04:25:58.324Z,14.81
2022-10-09T04:28:29.539Z,14.78
2022-10-09T04:30:59.689Z,14.79
2022-10-09T04:33:27.044Z,14.79
2022-10-09T04:35:55.388Z,14.73
2022-10-09T04:38:23.143Z,14.70
2022-10-09T04:41:01.070Z,14.69
2022-10-09T04:43:28.305Z,14.66
2022-10-09T04:45:55.485Z,14.64
2022-10-09T04:48:22.862Z,14.63
2022-10-09T04:50:49.623Z,14.61
2022-10-09T04:53:16.722Z,14.56
2022-10-09T04:55:44.564Z,14.54
2022-10-09T04:58:13.077Z,14.52
2022-10-09T05:00:44.973Z,14.50
2022-10-09T05:03:12.416Z,14.45
2022-10-09T05:05:39.216Z,14.41
2022-10-09T05:08:06.501Z,14.38
2022-10-09T05:10:33.392Z,14.31
2022-10-09T05:13:00.225Z,14.31
2022-10-09T05:15:27.356Z,14.27
2022-10-09T05:17:54.246Z,14.26
2022-10-09T05:20:21.153Z,14.23
2022-10-09T05:22:48.385Z,14.19
2022-10-09T05:25:15.609Z,14.17
2022-10-09T05:27:42.424Z,14.11
2022-10-09T05:30:09.938Z,14.07
2022-10-09T05:32:36.791Z,14.03
2022-10-09T05:35:04.461Z,13.99
2022-10-09T05:37:31.415Z,13.97
2022-10-09T05:39:58.184Z,13.93
2022-10-09T05:42:24.983Z,13.87
2022-10-09T05:44:51.740Z,13.87
2022-10-09T05:47:19.888Z,13.84
2022-10-09T05:49:46.856Z,13.80
2022-10-09T05:52:13.707Z,13.79
2022-10-09T05:54:42.037Z,13.74
2022-10-09T05:57:09.748Z,13.74
2022-10-09T05:59:36.497Z,13.73
2022-10-09T06:02:03.850Z,13.73
2022-10-09T06:04:30.712Z,13.70
2022-10-09T06:06:57.552Z,13.70
2022-10-09T06:09:25.702Z,13.69
2022-10-09T06:11:54.425Z,13.70
2022-10-09T06:14:22.355Z,13.72
2022-10-09T06:16:49.897Z,13.70
2022-10-09T06:19:19.323Z,13.72
2022-10-09T06:21:47.258Z,13.70
2022-10-09T06:24:28.695Z,13.67
2022-10-09T06:26:59.339Z,13.68
2022-10-09T06:29:26.570Z,13.70
2022-10-09T06:31:53.884Z,13.68
2022-10-09T06:34:20.760Z,13.68
2022-10-09T06:36:47.786Z,13.69
2022-10-09T06:39:14.604Z,13.70
2022-10-09T06:41:41.342Z,13.69
2022-10-09T06:44:16.285Z,13.72
2022-10-09T06:46:45.291Z,13.75
2022-10-09T06:49:12.470Z,13.74
2022-10-09T06:51:39.490Z,13.73
2022-10-09T06:54:12.057Z,13.76
2022-10-09T06:56:39.043Z,13.76
2022-10-09T06:59:07.402Z,13.81
2022-10-09T07:01:34.694Z,13.81
2022-10-09T07:04:07.055Z,13.80
2022-10-09T07:06:38.396Z,13.79
2022-10-09T07:09:08.462Z,13.82
2022-10-09T07:11:38.479Z,13.87
2022-10-09T07:14:07.984Z,13.90
2022-10-09T07:16:37.165Z,13.91
2022-10-09T07:19:07.702Z,13.92
2022-10-09T07:21:35.984Z,13.95
2022-10-09T07:24:04.071Z,13.96
2022-10-09T07:26:33.164Z,13.99
2022-10-09T07:29:00.913Z,14.02
2022-10-09T07:31:27.837Z,14.04
2022-10-09T07:33:56.922Z,14.05
2022-10-09T07:36:24.645Z,14.07
2022-10-09T07:38:53.213Z,14.09
2022-10-09T07:41:21.427Z,14.11
2022-10-09T07:43:48.380Z,14.12
2022-10-09T07:46:18.073Z,14.13
2022-10-09T07:48:45.925Z,14.16
2022-10-09T07:51:24.349Z,14.17
2022-10-09T07:53:51.687Z,14.17
2022-10-09T07:56:29.088Z,14.19
2022-10-09T07:58:58.055Z,14.20
2022-10-09T08:01:26.165Z,14.21
2022-10-09T08:03:52.962Z,14.24
2022-10-09T08:06:20.217Z,14.24
2022-10-09T08:08:54.940Z,14.24
2022-10-09T08:11:23.172Z,14.27
2022-10-09T08:13:51.240Z,14.29
2022-10-09T08:16:19.488Z,14.32
2022-10-09T08:18:46.923Z,14.33
2022-10-09T08:21:19.145Z,14.35
2022-10-09T08:23:46.634Z,14.37
2022-10-09T08:26:18.756Z,14.38
2022-10-09T08:28:54.498Z,14.41
2022-10-09T08:31:22.326Z,14.43
2022-10-09T08:33:53.578Z,14.48
2022-10-09T08:36:21.591Z,14.50
2022-10-09T08:38:49.198Z,14.53
2022-10-09T08:41:29.484Z,14.58
2022-10-09T08:44:10.442Z,14.60
2022-10-09T08:47:14.101Z,14.64
2022-10-09T08:49:49.320Z,14.69
2022-10-09T08:52:49.087Z,14.73
2022-10-09T08:55:24.179Z,14.78
2022-10-09T08:57:54.012Z,14.84
2022-10-09T09:00:29.348Z,14.87
2022-10-09T09:03:29.198Z,14.92
2022-10-09T09:06:17.875Z,14.97
2022-10-09T09:08:55.314Z,15.01
2022-10-09T09:11:40.937Z,15.07
2022-10-09T09:14:29.418Z,15.12
2022-10-09T09:17:12.533Z,15.17
2022-10-09T09:20:04.531Z,15.23
2022-10-09T09:22:32.684Z,15.28
2022-10-09T09:25:01.105Z,15.32
2022-10-09T09:27:34.788Z,15.36
2022-10-09T09:30:13.423Z,15.40
2022-10-09T09:32:43.637Z,15.45
2022-10-09T09:35:27.216Z,15.49
2022-10-09T09:37:54.249Z,15.53
2022-10-09T09:40:38.468Z,15.58
2022-10-09T09:43:16.852Z,15.62
2022-10-09T09:45:45.324Z,15.68
2022-10-09T09:48:36.569Z,15.71
2022-10-09T09:51:29.368Z,15.74
2022-10-09T09:54:18.566Z,15.78
2022-10-09T09:59:33.141Z,15.86
2022-10-09T10:02:17.980Z,15.90
2022-10-09T10:04:52.606Z,15.95
2022-10-09T10:07:37.129Z,15.98
2022-10-09T10:10:09.710Z,16.04
2022-10-09T10:13:06.924Z,16.07
2022-10-09T10:15:34.943Z,16.10
2022-10-09T10:18:23.340Z,16.15
2022-10-09T10:20:54.458Z,16.20
2022-10-09T10:23:36.453Z,16.23
2022-10-09T10:26:41.525Z,16.27
2022-10-09T10:29:14.272Z,16.30
2022-10-09T10:32:16.175Z,16.34
2022-10-09T10:34:53.828Z,16.37
2022-10-09T10:37:29.701Z,16.41
2022-10-09T10:40:15.086Z,16.44
2022-10-09T10:42:47.684Z,16.47
2022-10-09T10:45:14.402Z,16.49
2022-10-09T10:47:47.343Z,16.50
2022-10-09T10:50:16.354Z,16.53
2022-10-09T10:52:49.458Z,16.56
2022-10-09T10:56:04.935Z,16.59
2022-10-09T10:58:59.198Z,16.61
2022-10-09T11:02:10.264Z,16.63
2022-10-09T11:04:54.030Z,16.66
2022-10-09T11:07:42.876Z,16.68
2022-10-09T11:10:34.473Z,16.69
2022-10-09T11:13:12.443Z,16.72
2022-10-09T11:16:00.906Z,16.74
2022-10-09T11:18:52.242Z,16.78
2022-10-09T11:22:00.675Z,16.81
2022-10-09T11:24:48.136Z,16.83
2022-10-09T11:27:20.812Z,16.84
2022-10-09T11:29:57.302Z,16.86
2022-10-09T11:32:32.591Z,16.91
2022-10-09T11:35:12.948Z,16.93
2022-10-09T11:37:43.576Z,16.95
2022-10-09T11:40:20.618Z,16.97
2022-10-09T11:43:21.378Z,16.99
2022-10-09T11:45:55.202Z,17.02
2022-10-09T11:48:42.674Z,17.04
2022-10-09T11:51:23.785Z,17.07
2022-10-09T11:53:52.510Z,17.10
2022-10-09T11:56:27.730Z,17.13
2022-10-09T11:59:06.419Z,17.16
2022-10-09T12:01:39.808Z,17.19
2022-10-09T12:04:27.805Z,17.19
2022-10-09T12:07:09.418Z,17.22
2022-10-09T12:09:42.649Z,17.24
2022-10-09T12:12:23.029Z,17.25
2022-10-09T12:14:52.043Z,17.27
2022-10-09T12:17:21.895Z,17.30
2022-10-09T12:19:57.377Z,17.33
2022-10-09T12:22:32.044Z,17.35
2022-10-09T12:25:06.659Z,17.35
2022-10-09T12:27:43.421Z,17.37
2022-10-09T12:30:14.240Z,17.39
2022-10-09T12:33:25.965Z,17.41
2022-10-09T12:36:03.854Z,17.42
2022-10-09T12:38:32.014Z,17.44
2022-10-09T12:41:02.876Z,17.45
2022-10-09T12:43:32.513Z,17.46
2022-10-09T12:46:00.595Z,17.46
2022-10-09T12:48:29.108Z,17.48
2022-10-09T12:50:56.204Z,17.49
2022-10-09T12:53:27.994Z,17.52
2022-10-09T12:55:59.298Z,17.53
2022-10-09T12:58:31.247Z,17.54
2022-10-09T13:01:01.404Z,17.54
2022-10-09T13:03:57.675Z,17.54
2022-10-09T13:06:38.074Z,17.54
2022-10-09T13:09:07.951Z,17.54
2022-10-09T13:11:40.955Z,17.54
2022-10-09T13:14:24.535Z,17.55
2022-10-09T13:16:51.810Z,17.54
2022-10-09T13:19:27.609Z,17.55
2022-10-09T13:22:06.421Z,17.54
2022-10-09T13:24:35.793Z,17.54
2022-10-09T13:27:04.139Z,17.53
2022-10-09T13:29:31.629Z,17.54
2022-10-09T13:31:58.628Z,17.54
2022-10-09T13:34:29.111Z,17.54
2022-10-09T13:36:56.650Z,17.54
2022-10-09T13:39:23.393Z,17.54
2022-10-09T13:41:55.487Z,17.54
2022-10-09T13:44:22.291Z,17.54
2022-10-09T13:46:49.188Z,17.54
2022-10-09T13:49:16.071Z,17.53
2022-10-09T13:51:42.894Z,17.53
2022-10-09T13:54:12.285Z,17.54
2022-10-09T13:56:39.029Z,17.53
2022-10-09T13:59:05.875Z,17.53
2022-10-09T14:01:32.772Z,17.52
2022-10-09T14:03:59.623Z,17.52
2022-10-09T14:06:26.379Z,17.52
2022-10-09T14:08:53.317Z,17.52
2022-10-09T14:11:20.216Z,17.52
2022-10-09T14:13:46.926Z,17.52
2022-10-09T14:16:13.823Z,17.52
2022-10-09T14:18:40.578Z,17.52
2022-10-09T14:21:15.046Z,17.52
2022-10-09T14:23:42.634Z,17.52
2022-10-09T14:26:10.073Z,17.51
2022-10-09T14:28:37.150Z,17.51
2022-10-09T14:31:07.687Z,17.51
2022-10-09T14:33:34.574Z,17.51
2022-10-09T14:36:20.215Z,17.50
2022-10-09T14:38:48.546Z,17.49
2022-10-09T14:41:18.047Z,17.49
2022-10-09T14:43:45.656Z,17.48
2022-10-09T14:46:17.841Z,17.47
2022-10-09T14:48:45.758Z,17.45
2022-10-09T14:51:18.607Z,17.45
2022-10-09T14:53:46.696Z,17.44
2022-10-09T14:56:16.567Z,17.44
2022-10-09T14:58:43.820Z,17.42
2022-10-09T15:01:15.296Z,17.40
2022-10-09T15:03:42.625Z,17.39
2022-10-09T15:06:11.156Z,17.36
2022-10-09T15:08:40.332Z,17.33
2022-10-09T15:11:07.692Z,17.31
2022-10-09T15:13:35.816Z,17.28
2022-10-09T15:16:08.258Z,17.27
2022-10-09T15:18:35.728Z,17.24
2022-10-09T15:21:02.688Z,17.22
2022-10-09T15:23:30.140Z,17.18
2022-10-09T15:25:59.241Z,17.16
2022-10-09T15:28:26.337Z,17.14
2022-10-09T15:31:00.493Z,17.10
2022-10-09T15:33:27.466Z,17.08
2022-10-09T15:35:54.355Z,17.05
2022-10-09T15:38:23.160Z,17.01
2022-10-09T15:40:51.843Z,16.98
2022-10-09T15:43:21.052Z,16.94
2022-10-09T15:45:48.734Z,16.92
2022-10-09T15:48:21.440Z,16.87
2022-10-09T15:50:51.572Z,16.81
2022-10-09T15:53:20.712Z,16.80
2022-10-09T15:55:49.139Z,16.73
2022-10-09T15:58:17.009Z,16.69
2022-10-09T16:00:49.712Z,16.67
2022-10-09T16:03:18.081Z,16.62
2022-10-09T16:05:48.838Z,16.56
2022-10-09T16:08:17.626Z,16.52
2022-10-09T16:10:49.424Z,16.47
2022-10-09T16:13:16.810Z,16.42
2022-10-09T16:15:47.828Z,16.38
2022-10-09T16:18:16.686Z,16.31
2022-10-09T16:20:44.001Z,16.25
2022-10-09T16:23:11.613Z,16.20
2022-10-09T16:25:39.665Z,16.11
2022-10-09T16:28:09.428Z,16.09
2022-10-09T16:30:41.318Z,16.01
2022-10-09T16:33:12.438Z,15.96
2022-10-09T16:35:39.709Z,15.88
2022-10-09T16:38:06.499Z,15.82
2022-10-09T16:41:00.449Z,15.77
2022-10-09T16:43:20.488Z,15.69
2022-10-09T16:45:47.412Z,15.63
2022-10-09T16:48:14.173Z,15.56
2022-10-09T16:50:42.460Z,15.48
2022-10-09T16:53:09.810Z,15.41
2022-10-09T16:55:36.722Z,15.34
2022-10-09T16:58:03.559Z,15.27
2022-10-09T17:00:30.636Z,15.23
2022-10-09T17:02:57.444Z,15.17
2022-10-09T17:05:25.616Z,15.12
2022-10-09T17:07:52.899Z,15.07
2022-10-09T17:10:20.029Z,15.01
2022-10-09T17:12:46.790Z,14.95
2022-10-09T17:15:13.687Z,14.89
2022-10-09T17:17:41.020Z,14.82
2022-10-09T17:20:08.246Z,14.75
2022-10-09T17:22:35.322Z,14.74
2022-10-09T17:25:02.534Z,14.71
2022-10-09T17:27:29.338Z,14.67
2022-10-09T17:29:56.135Z,14.61
2022-10-09T17:32:23.135Z,14.56
2022-10-09T17:34:50.952Z,14.50
2022-10-09T17:37:17.801Z,14.45
2022-10-09T17:39:48.542Z,14.39
2022-10-09T17:42:18.097Z,14.35
2022-10-09T17:44:45.197Z,14.30
2022-10-09T17:47:11.979Z,14.23
2022-10-09T17:49:38.799Z,14.17
2022-10-09T17:52:05.626Z,14.13
2022-10-09T17:54:32.426Z,14.08
2022-10-09T17:57:00.708Z,14.06
2022-10-09T17:59:27.987Z,14.00
2022-10-09T18:01:54.868Z,13.93
2022-10-09T18:04:22.588Z,13.91
2022-10-09T18:06:49.910Z,13.83
2022-10-09T18:09:17.209Z,13.79
2022-10-09T18:11:44.386Z,13.74
2022-10-09T18:14:12.294Z,13.72
2022-10-09T18:16:40.828Z,13.70
2022-10-09T18:19:12.766Z,13.63
2022-10-09T18:21:42.969Z,13.57
2022-10-09T18:24:10.831Z,13.55
2022-10-09T18:26:38.074Z,13.51
2022-10-09T18:29:05.607Z,13.44
2022-10-09T18:31:32.900Z,13.40
2022-10-09T18:34:00.782Z,13.35
2022-10-09T18:36:31.858Z,13.29
2022-10-09T18:39:03.079Z,13.27
2022-10-09T18:41:30.618Z,13.23
2022-10-09T18:44:00.626Z,13.17
2022-10-09T18:46:42.066Z,13.12
2022-10-09T18:49:12.676Z,13.12
2022-10-09T18:51:42.462Z,13.09
2022-10-09T18:54:15.716Z,13.06
2022-10-09T18:56:46.679Z,12.99
2022-10-09T18:59:17.206Z,12.95
2022-10-09T19:01:44.715Z,12.93
2022-10-09T19:04:13.510Z,12.85
2022-10-09T19:06:40.789Z,12.80
2022-10-09T19:09:07.989Z,12.84
2022-10-09T19:11:35.311Z,12.77
2022-10-09T19:14:02.541Z,12.72
2022-10-09T19:16:32.103Z,12.69
2022-10-09T19:18:59.758Z,12.62
2022-10-09T19:21:26.790Z,12.57
2022-10-09T19:23:54.441Z,12.55
2022-10-09T19:26:22.410Z,12.52
2022-10-09T19:28:49.160Z,12.48
2022-10-09T19:31:15.963Z,12.42
2022-10-09T19:33:43.223Z,12.38
2022-10-09T19:36:12.893Z,12.38
2022-10-09T19:38:40.300Z,12.35
2022-10-09T19:41:12.878Z,12.31
2022-10-09T19:43:40.146Z,12.27
2022-10-09T19:46:10.310Z,12.24
2022-10-09T19:48:38.053Z,12.17
2022-10-09T19:51:16.742Z,12.16
2022-10-09T19:53:43.972Z,12.13
2022-10-09T19:56:13.458Z,12.06
2022-10-09T19:58:42.335Z,12.01
2022-10-09T20:01:14.323Z,12.02
2022-10-09T20:03:42.062Z,12.01
2022-10-09T20:06:10.386Z,11.97
2022-10-09T20:08:38.630Z,11.95
2022-10-09T20:11:06.510Z,11.91
2022-10-09T20:13:35.475Z,11.87
2022-10-09T20:16:04.645Z,11.85
2022-10-09T20:18:31.801Z,11.82
2022-10-09T20:20:58.911Z,11.77
2022-10-09T20:23:26.505Z,11.75
2022-10-09T20:26:03.865Z,11.75
2022-10-09T20:28:35.863Z,11.64
2022-10-09T20:31:07.959Z,11.64
2022-10-09T20:33:36.167Z,11.61
2022-10-09T20:36:04.747Z,11.56
2022-10-09T20:38:31.661Z,11.58
2022-10-09T20:41:03.952Z,11.52
2022-10-09T20:43:30.707Z,11.48
2022-10-09T20:45:57.478Z,11.45
2022-10-09T20:48:24.223Z,11.47
2022-10-09T20:50:50.940Z,11.45
2022-10-09T20:53:17.642Z,11.44
2022-10-09T20:55:44.406Z,11.38
2022-10-09T20:58:11.246Z,11.37
2022-10-09T21:00:41.981Z,11.37
2022-10-09T21:03:12.328Z,11.28
2022-10-09T21:05:43.380Z,11.26
2022-10-09T21:08:10.657Z,11.25
2022-10-09T21:10:48.812Z,11.18
2022-10-09T21:13:16.245Z,11.17
2022-10-09T21:15:44.804Z,11.18
2022-10-09T21:18:12.046Z,11.14
2022-10-09T21:20:40.406Z,11.12
2022-10-09T21:23:07.660Z,11.11
2022-10-09T21:25:34.656Z,11.06
2022-10-09T21:28:01.486Z,10.98
2022-10-09T21:30:28.922Z,10.99
2022-10-09T21:32:56.491Z,10.96
2022-10-09T21:35:23.819Z,10.92
2022-10-09T21:37:50.831Z,10.95
2022-10-09T21:40:18.065Z,10.89
2022-10-09T21:42:44.787Z,10.88
2022-10-09T21:45:13.013Z,10.82
2022-10-09T21:47:39.767Z,10.80
2022-10-09T21:50:07.281Z,10.76
2022-10-09T21:52:34.054Z,10.79
2022-10-09T21:55:00.790Z,10.76
2022-10-09T21:57:27.514Z,10.72
2022-10-09T21:59:54.257Z,10.72
2022-10-09T22:02:20.947Z,10.72
2022-10-09T22:04:47.876Z,10.68
2022-10-09T22:07:14.592Z,10.64
2022-10-09T22:09:41.339Z,10.61
2022-10-09T22:12:08.075Z,10.57
2022-10-09T22:14:34.801Z,10.50
2022-10-09T22:17:01.603Z,10.52
2022-10-09T22:19:28.298Z,10.51
2022-10-09T22:21:55.044Z,10.49
2022-10-09T22:24:25.861Z,10.50
2022-10-09T22:26:56.980Z,10.47
2022-10-09T22:29:25.125Z,10.41
2022-10-09T22:31:51.932Z,10.43
2022-10-09T22:34:19.138Z,10.40
2022-10-09T22:36:46.630Z,10.40
2022-10-09T22:39:13.399Z,10.37
2022-10-09T22:41:40.532Z,10.34
2022-10-09T22:44:08.760Z,10.32
2022-10-09T22:46:38.871Z,10.29
2022-10-09T22:49:07.654Z,10.25
2022-10-09T22:51:34.831Z,10.25
2022-10-09T22:54:01.884Z,10.27
2022-10-09T22:56:32.710Z,10.23
2022-10-09T22:58:59.539Z,10.22
2022-10-09T23:01:31.626Z,10.14
2022-10-09T23:04:01.021Z,10.12
2022-10-09T23:06:27.919Z,10.10
2022-10-09T23:08:54.682Z,10.08
2022-10-09T23:11:22.962Z,10.05
2022-10-09T23:13:59.561Z,10.05
2022-10-09T23:16:28.343Z,10.04
2022-10-09T23:18:57.807Z,10.03
2022-10-09T23:21:25.363Z,9.98
2022-10-09T23:23:52.872Z,9.98
2022-10-09T23:26:24.685Z,9.97
2022-10-09T23:28:54.371Z,9.92
2022-10-09T23:31:21.890Z,9.91
2022-10-09T23:33:48.917Z,9.91
2022-10-09T23:36:18.968Z,9.86
2022-10-09T23:38:46.142Z,9.82
2022-10-09T23:41:15.754Z,9.82
2022-10-09T23:43:44.185Z,9.79
2022-10-09T23:46:14.003Z,9.76
2022-10-09T23:48:40.952Z,9.78
2022-10-09T23:51:08.461Z,9.77
2022-10-09T23:53:35.268Z,9.71
2022-10-09T23:56:05.851Z,9.71
2022-10-09T23:58:32.608Z,9.68
